Time;durP1;ratioP1;P1;durP2;ratioP2;P2;SDS_P1;SDS_P2;PMS_P1;PMS_P2;Temp;Humidity;BMP_temperature;BMP_pressure;BME280_temperature;BME280_humidity;BME280_pressure;Samples;Min_cycle;Max_cycle;Signal;HPM_P1;HPM_P2
2023/08/01 00:00:32;;;;;;;2.80;2.60;;;;;;;;;;4972007;28;20474;-72
2023/08/01 00:02:58;;;;;;;2.67;2.67;;;;;;;;;;4971930;28;20479;-70
2023/08/01 00:05:24;;;;;;;2.87;2.73;;;;;;;;;;4971801;28;20906;-70
2023/08/01 00:07:50;;;;;;;3.43;3.17;;;;;;;;;;4972458;28;20898;-71
2023/08/01 00:10:16;;;;;;;2.17;2.17;;;;;;;;;;4972074;28;20422;-71
2023/08/01 00:12:42;;;;;;;6.33;2.97;;;;;;;;;;4971695;28;20776;-71
2023/08/01 00:15:09;;;;;;;2.47;2.37;;;;;;;;;;4972068;28;20430;-70
2023/08/01 00:17:35;;;;;;;3.70;2.57;;;;;;;;;;4971696;28;20470;-70
2023/08/01 00:20:04;;;;;;;2.70;2.60;;;;;;;;;;4971779;28;20975;-70
2023/08/01 00:22:30;;;;;;;2.80;2.30;;;;;;;;;;4971678;28;21011;-70
2023/08/01 00:24:56;;;;;;;2.77;2.67;;;;;;;;;;4971646;28;20798;-70
2023/08/01 00:27:24;;;;;;;2.57;2.47;;;;;;;;;;4971829;28;20508;-71
2023/08/01 00:29:50;;;;;;;2.63;2.20;;;;;;;;;;4971781;28;20790;-70
2023/08/01 00:32:16;;;;;;;3.37;3.00;;;;;;;;;;4971839;28;20936;-71
2023/08/01 00:34:41;;;;;;;4.80;2.93;;;;;;;;;;4971478;28;20418;-70
2023/08/01 00:37:07;;;;;;;9.47;2.73;;;;;;;;;;4971495;28;20773;-71
2023/08/01 00:39:33;;;;;;;2.90;2.80;;;;;;;;;;4971318;28;20429;-71
2023/08/01 00:42:00;;;;;;;4.60;3.10;;;;;;;;;;4971425;28;20418;-70
2023/08/01 00:44:26;;;;;;;1.90;1.90;;;;;;;;;;4970100;28;20447;-71
2023/08/01 00:46:52;;;;;;;2.30;2.23;;;;;;;;;;4972755;28;20910;-70
2023/08/01 00:49:18;;;;;;;4.67;3.50;;;;;;;;;;4974791;28;20550;-70
2023/08/01 00:51:44;;;;;;;5.57;2.83;;;;;;;;;;4974837;28;20414;-70
2023/08/01 00:54:10;;;;;;;2.50;2.40;;;;;;;;;;4974608;28;21016;-70
2023/08/01 00:56:37;;;;;;;2.80;2.70;;;;;;;;;;4975186;28;20446;-70
2023/08/01 00:59:03;;;;;;;5.20;2.37;;;;;;;;;;4974850;28;20422;-71
2023/08/01 01:01:29;;;;;;;3.50;3.20;;;;;;;;;;4974748;28;21030;-70
2023/08/01 01:03:55;;;;;;;2.30;2.20;;;;;;;;;;4974624;28;20440;-70
2023/08/01 01:06:25;;;;;;;2.90;2.67;;;;;;;;;;4974476;28;20422;-70
2023/08/01 01:08:51;;;;;;;5.60;2.70;;;;;;;;;;4975051;28;20509;-70
2023/08/01 01:11:16;;;;;;;2.80;2.70;;;;;;;;;;4974499;28;20538;-70
2023/08/01 01:13:42;;;;;;;2.73;2.53;;;;;;;;;;4974409;28;20422;-70
2023/08/01 01:16:08;;;;;;;2.53;2.33;;;;;;;;;;4974394;28;20468;-70
2023/08/01 01:18:34;;;;;;;2.33;2.23;;;;;;;;;;4974687;28;20501;-70
2023/08/01 01:21:00;;;;;;;2.03;1.93;;;;;;;;;;4974274;28;20496;-70
2023/08/01 01:23:27;;;;;;;2.40;2.30;;;;;;;;;;4974608;28;20495;-70
2023/08/01 01:25:54;;;;;;;4.10;2.70;;;;;;;;;;4974540;28;20905;-70
2023/08/01 01:28:21;;;;;;;4.77;1.80;;;;;;;;;;4974452;28;20430;-70
2023/08/01 01:30:48;;;;;;;3.60;2.63;;;;;;;;;;4974213;28;20963;-70
2023/08/01 01:33:16;;;;;;;1.50;1.50;;;;;;;;;;4974751;28;20870;-70
2023/08/01 01:35:41;;;;;;;4.97;2.20;;;;;;;;;;4974006;28;20914;-70
2023/08/01 01:38:07;;;;;;;3.20;2.90;;;;;;;;;;4974173;28;20475;-70
2023/08/01 01:40:34;;;;;;;2.80;2.60;;;;;;;;;;4974075;28;20484;-70
2023/08/01 01:43:01;;;;;;;9.97;2.90;;;;;;;;;;4974351;28;20426;-70
2023/08/01 01:45:27;;;;;;;3.73;2.53;;;;;;;;;;4974187;28;20414;-70
2023/08/01 01:47:53;;;;;;;3.70;2.47;;;;;;;;;;4974231;28;20437;-70
2023/08/01 01:50:19;;;;;;;6.80;2.83;;;;;;;;;;4974078;28;20505;-70
2023/08/01 01:52:45;;;;;;;3.03;2.83;;;;;;;;;;4974200;28;20454;-70
2023/08/01 01:55:11;;;;;;;2.60;2.40;;;;;;;;;;4973821;28;20466;-70
2023/08/01 01:57:37;;;;;;;8.63;2.33;;;;;;;;;;4974044;28;20944;-70
2023/08/01 02:00:04;;;;;;;2.20;2.13;;;;;;;;;;4973911;28;20491;-70
2023/08/01 02:02:30;;;;;;;2.20;2.00;;;;;;;;;;4973991;28;20521;-70
2023/08/01 02:04:56;;;;;;;11.53;2.90;;;;;;;;;;4973883;28;20441;-70
2023/08/01 02:07:22;;;;;;;2.50;2.30;;;;;;;;;;4974044;28;20457;-71
2023/08/01 02:09:48;;;;;;;2.10;2.10;;;;;;;;;;4974080;28;20445;-70
2023/08/01 02:12:14;;;;;;;2.43;2.33;;;;;;;;;;4973574;28;20432;-70
2023/08/01 02:14:40;;;;;;;7.20;3.17;;;;;;;;;;4973780;28;20418;-70
2023/08/01 02:17:07;;;;;;;2.20;2.10;;;;;;;;;;4973545;28;20417;-70
2023/08/01 02:19:33;;;;;;;3.80;1.90;;;;;;;;;;4973349;28;20475;-70
2023/08/01 02:21:59;;;;;;;2.63;2.43;;;;;;;;;;4973475;28;20429;-70
2023/08/01 02:24:25;;;;;;;3.40;2.37;;;;;;;;;;4973652;28;20912;-70
2023/08/01 02:26:51;;;;;;;2.63;2.43;;;;;;;;;;4973332;28;20425;-70
2023/08/01 02:29:17;;;;;;;5.33;2.87;;;;;;;;;;4973619;28;20780;-70
2023/08/01 02:31:43;;;;;;;6.27;3.10;;;;;;;;;;4973586;28;20509;-70
2023/08/01 02:34:09;;;;;;;3.13;2.50;;;;;;;;;;4973202;28;20457;-70
2023/08/01 02:36:35;;;;;;;2.33;2.27;;;;;;;;;;4973256;28;20415;-70
2023/08/01 02:39:01;;;;;;;2.50;2.07;;;;;;;;;;4973107;28;20963;-70
2023/08/01 02:41:27;;;;;;;3.00;2.23;;;;;;;;;;4973157;28;20473;-70
2023/08/01 02:43:53;;;;;;;5.80;2.80;;;;;;;;;;4973351;28;20422;-70
2023/08/01 02:46:19;;;;;;;1.87;1.77;;;;;;;;;;4972989;28;20426;-70
2023/08/01 02:48:45;;;;;;;2.70;2.50;;;;;;;;;;4973092;28;20472;-70
2023/08/01 02:51:11;;;;;;;2.23;2.13;;;;;;;;;;4972964;28;20517;-70
2023/08/01 02:53:40;;;;;;;4.10;1.93;;;;;;;;;;4972751;28;20462;-70
2023/08/01 02:56:07;;;;;;;2.23;2.23;;;;;;;;;;4972943;28;20426;-70
2023/08/01 02:58:33;;;;;;;2.23;2.10;;;;;;;;;;4973429;28;20426;-70
2023/08/01 03:00:59;;;;;;;6.40;2.30;;;;;;;;;;4972790;28;20481;-71
2023/08/01 03:03:25;;;;;;;3.20;2.90;;;;;;;;;;4973073;28;20425;-70
2023/08/01 03:05:52;;;;;;;2.50;2.50;;;;;;;;;;4972947;28;20426;-70
2023/08/01 03:08:19;;;;;;;2.70;2.60;;;;;;;;;;4972277;28;20429;-70
2023/08/01 03:10:45;;;;;;;2.30;2.07;;;;;;;;;;4972719;28;20432;-70
2023/08/01 03:13:11;;;;;;;2.20;2.10;;;;;;;;;;4972902;28;20422;-71
2023/08/01 03:15:38;;;;;;;5.33;2.47;;;;;;;;;;4972474;28;20488;-70
2023/08/01 03:18:03;;;;;;;3.17;2.97;;;;;;;;;;4972882;28;20414;-70
2023/08/01 03:20:29;;;;;;;2.43;2.33;;;;;;;;;;4972433;28;20462;-70
2023/08/01 03:22:55;;;;;;;3.60;2.17;;;;;;;;;;4972507;28;20570;-70
2023/08/01 03:25:21;;;;;;;3.10;2.60;;;;;;;;;;4972479;28;20889;-70
2023/08/01 03:27:47;;;;;;;2.60;2.50;;;;;;;;;;4972750;28;20441;-70
2023/08/01 03:30:14;;;;;;;2.60;2.30;;;;;;;;;;4971240;28;20934;-70
2023/08/01 03:32:41;;;;;;;4.93;2.07;;;;;;;;;;4972272;28;20425;-70
2023/08/01 03:35:07;;;;;;;1.87;1.87;;;;;;;;;;4972569;28;20431;-70
2023/08/01 03:37:33;;;;;;;3.70;3.17;;;;;;;;;;4972605;28;20434;-70
2023/08/01 03:39:59;;;;;;;2.67;2.53;;;;;;;;;;4972910;28;20564;-70
2023/08/01 03:42:25;;;;;;;2.43;2.20;;;;;;;;;;4972453;28;20901;-70
2023/08/01 03:44:51;;;;;;;3.33;2.70;;;;;;;;;;4972377;28;20438;-70
2023/08/01 03:47:17;;;;;;;3.93;2.10;;;;;;;;;;4972464;28;20422;-70
2023/08/01 03:49:43;;;;;;;3.00;2.70;;;;;;;;;;4972258;28;20433;-70
2023/08/01 03:52:09;;;;;;;2.40;2.30;;;;;;;;;;4972678;28;20430;-70
2023/08/01 03:54:35;;;;;;;10.00;2.40;;;;;;;;;;4971774;28;20478;-70
2023/08/01 03:57:02;;;;;;;2.80;2.10;;;;;;;;;;4972010;28;20458;-70
2023/08/01 03:59:28;;;;;;;2.67;2.33;;;;;;;;;;4972224;28;20430;-70
2023/08/01 04:01:54;;;;;;;2.67;2.50;;;;;;;;;;4971447;28;20437;-70
2023/08/01 04:04:20;;;;;;;2.40;2.30;;;;;;;;;;4972137;28;20426;-70
2023/08/01 04:06:46;;;;;;;3.30;3.00;;;;;;;;;;4972178;28;20435;-71
2023/08/01 04:09:12;;;;;;;2.40;2.20;;;;;;;;;;4971835;28;20490;-70
2023/08/01 04:11:38;;;;;;;5.90;2.70;;;;;;;;;;4970609;28;20438;-71
2023/08/01 04:14:04;;;;;;;6.13;2.27;;;;;;;;;;4972071;28;20433;-70
2023/08/01 04:16:30;;;;;;;4.43;3.27;;;;;;;;;;4971794;28;20475;-70
2023/08/01 04:18:56;;;;;;;3.60;3.00;;;;;;;;;;4972046;28;20516;-70
2023/08/01 04:21:22;;;;;;;6.60;3.70;;;;;;;;;;4970830;28;20526;-70
2023/08/01 04:23:48;;;;;;;2.43;2.30;;;;;;;;;;4971835;28;20894;-70
2023/08/01 04:26:14;;;;;;;4.53;2.97;;;;;;;;;;4971684;28;20422;-70
2023/08/01 04:28:40;;;;;;;9.37;2.80;;;;;;;;;;4971855;28;20748;-70
2023/08/01 04:31:06;;;;;;;3.23;2.80;;;;;;;;;;4971893;28;20446;-71
2023/08/01 04:33:32;;;;;;;2.30;2.03;;;;;;;;;;4971809;28;20438;-70
2023/08/01 04:35:58;;;;;;;4.40;2.90;;;;;;;;;;4971741;28;20418;-70
2023/08/01 04:38:23;;;;;;;5.17;2.90;;;;;;;;;;4971770;28;20493;-70
2023/08/01 04:40:49;;;;;;;2.70;2.50;;;;;;;;;;4971394;28;20477;-71
2023/08/01 04:43:15;;;;;;;2.80;2.50;;;;;;;;;;4971358;28;20418;-70
2023/08/01 04:45:41;;;;;;;3.10;2.90;;;;;;;;;;4971435;28;20441;-70
2023/08/01 04:48:07;;;;;;;2.97;2.40;;;;;;;;;;4971340;28;20457;-70
2023/08/01 04:50:33;;;;;;;3.63;2.67;;;;;;;;;;4971325;28;20433;-70
2023/08/01 04:52:59;;;;;;;2.20;2.07;;;;;;;;;;4971292;28;20418;-71
2023/08/01 04:55:25;;;;;;;2.60;2.40;;;;;;;;;;4971330;28;20445;-70
2023/08/01 04:57:51;;;;;;;2.60;2.50;;;;;;;;;;4971413;28;20464;-70
2023/08/01 05:00:17;;;;;;;6.93;2.37;;;;;;;;;;4971346;28;20488;-70
2023/08/01 05:02:43;;;;;;;4.33;2.70;;;;;;;;;;4971450;28;20951;-70
2023/08/01 05:05:09;;;;;;;4.50;2.60;;;;;;;;;;4971101;28;20422;-70
2023/08/01 05:07:35;;;;;;;6.20;2.90;;;;;;;;;;4971178;28;20418;-70
2023/08/01 05:10:01;;;;;;;7.33;2.83;;;;;;;;;;4971448;28;20910;-70
2023/08/01 05:12:27;;;;;;;2.60;2.50;;;;;;;;;;4971132;28;20509;-70
2023/08/01 05:14:53;;;;;;;2.80;2.60;;;;;;;;;;4971030;28;20469;-70
2023/08/01 05:17:19;;;;;;;5.53;3.10;;;;;;;;;;4971087;28;20422;-70
2023/08/01 05:19:45;;;;;;;4.37;2.90;;;;;;;;;;4969698;28;20426;-70
2023/08/01 05:22:11;;;;;;;4.03;2.73;;;;;;;;;;4970976;28;20437;-70
2023/08/01 05:24:37;;;;;;;5.70;2.50;;;;;;;;;;4971161;28;20425;-70
2023/08/01 05:27:03;;;;;;;3.43;2.80;;;;;;;;;;4971156;28;20429;-70
2023/08/01 05:29:29;;;;;;;2.87;2.77;;;;;;;;;;4970452;28;20426;-70
2023/08/01 05:31:55;;;;;;;6.43;3.27;;;;;;;;;;4969855;28;20429;-70
2023/08/01 05:34:22;;;;;;;2.80;2.07;;;;;;;;;;4974256;28;20418;-71
2023/08/01 05:36:48;;;;;;;4.83;2.37;;;;;;;;;;4974225;28;20491;-70
2023/08/01 05:39:14;;;;;;;3.23;3.03;;;;;;;;;;4974676;28;20424;-70
2023/08/01 05:41:40;;;;;;;3.83;3.33;;;;;;;;;;4973885;28;20481;-70
2023/08/01 05:44:06;;;;;;;2.90;2.80;;;;;;;;;;4973870;28;20421;-70
2023/08/01 05:46:32;;;;;;;3.23;2.97;;;;;;;;;;4974181;28;20422;-70
2023/08/01 05:48:58;;;;;;;2.57;2.47;;;;;;;;;;4972508;28;20422;-70
2023/08/01 05:51:24;;;;;;;3.10;2.90;;;;;;;;;;4972568;28;20430;-70
2023/08/01 05:53:50;;;;;;;3.70;3.40;;;;;;;;;;4973670;28;20472;-70
2023/08/01 05:56:16;;;;;;;3.73;3.10;;;;;;;;;;4972546;28;20429;-70
2023/08/01 05:58:42;;;;;;;3.63;3.23;;;;;;;;;;4973777;28;20422;-70
2023/08/01 06:01:09;;;;;;;3.53;2.97;;;;;;;;;;4973558;28;20527;-71
2023/08/01 06:03:35;;;;;;;3.93;2.90;;;;;;;;;;4973946;28;20418;-70
2023/08/01 06:06:00;;;;;;;2.70;2.60;;;;;;;;;;4974631;28;20439;-70
2023/08/01 06:08:26;;;;;;;3.07;2.87;;;;;;;;;;4973907;28;20973;-71
2023/08/01 06:10:52;;;;;;;2.53;2.43;;;;;;;;;;4973614;28;20787;-71
2023/08/01 06:13:19;;;;;;;3.00;2.90;;;;;;;;;;4973600;28;20418;-71
2023/08/01 06:15:45;;;;;;;3.43;2.70;;;;;;;;;;4973831;28;20430;-70
2023/08/01 06:18:12;;;;;;;2.77;2.07;;;;;;;;;;4973860;28;20517;-71
2023/08/01 06:23:41;;;;;;;4.07;3.03;;;;;;;;;;4973519;28;20924;-71
2023/08/01 06:26:07;;;;;;;5.50;3.13;;;;;;;;;;4973685;28;20414;-71
2023/08/01 06:28:33;;;;;;;2.73;2.63;;;;;;;;;;4973693;28;20945;-71
2023/08/01 06:30:59;;;;;;;2.70;2.60;;;;;;;;;;4973556;28;20446;-70
2023/08/01 06:33:25;;;;;;;3.13;3.00;;;;;;;;;;4973583;28;20901;-70
2023/08/01 06:35:51;;;;;;;2.70;2.50;;;;;;;;;;4973473;28;20772;-70
2023/08/01 06:38:17;;;;;;;3.40;3.10;;;;;;;;;;4973498;28;20427;-71
2023/08/01 06:40:43;;;;;;;13.70;2.60;;;;;;;;;;4973328;28;20457;-71
2023/08/01 06:43:09;;;;;;;4.67;2.80;;;;;;;;;;4972630;28;20433;-70
2023/08/01 06:45:35;;;;;;;3.60;2.73;;;;;;;;;;4973064;28;20418;-70
2023/08/01 06:48:01;;;;;;;3.00;2.80;;;;;;;;;;4973378;28;20422;-70
2023/08/01 06:50:27;;;;;;;2.97;2.77;;;;;;;;;;4972968;28;20421;-70
2023/08/01 06:52:53;;;;;;;7.23;3.50;;;;;;;;;;4973017;28;20527;-71
2023/08/01 06:55:19;;;;;;;3.60;3.27;;;;;;;;;;4972806;28;20477;-71
2023/08/01 06:57:45;;;;;;;2.80;2.70;;;;;;;;;;4972705;28;20426;-70
2023/08/01 07:00:11;;;;;;;3.13;2.93;;;;;;;;;;4972967;28;20529;-69
2023/08/01 07:02:38;;;;;;;2.40;2.30;;;;;;;;;;4972835;28;20421;-71
2023/08/01 07:05:04;;;;;;;3.63;2.70;;;;;;;;;;4973033;28;20426;-71
2023/08/01 07:07:30;;;;;;;2.83;2.63;;;;;;;;;;4973087;28;20418;-69
2023/08/01 07:09:56;;;;;;;3.00;2.87;;;;;;;;;;4972934;28;20476;-69
2023/08/01 07:12:22;;;;;;;2.60;2.40;;;;;;;;;;4972944;28;20426;-71
2023/08/01 07:14:48;;;;;;;2.57;2.37;;;;;;;;;;4972471;28;20510;-70
2023/08/01 07:17:14;;;;;;;4.10;3.27;;;;;;;;;;4972930;28;20422;-67
2023/08/01 07:19:40;;;;;;;3.47;2.63;;;;;;;;;;4972440;28;20430;-67
2023/08/01 07:22:06;;;;;;;3.17;2.97;;;;;;;;;;4972504;28;20434;-66
2023/08/01 07:24:33;;;;;;;4.93;3.13;;;;;;;;;;4972726;28;20429;-67
2023/08/01 07:26:59;;;;;;;5.80;3.93;;;;;;;;;;4972936;28;20969;-67
2023/08/01 07:29:25;;;;;;;7.13;2.83;;;;;;;;;;4972373;28;20446;-66
2023/08/01 07:31:51;;;;;;;5.00;3.17;;;;;;;;;;4972668;28;20517;-67
2023/08/01 07:34:17;;;;;;;2.63;2.43;;;;;;;;;;4972478;28;20897;-66
2023/08/01 07:36:43;;;;;;;3.03;2.53;;;;;;;;;;4972389;28;20426;-67
2023/08/01 07:39:09;;;;;;;5.03;2.63;;;;;;;;;;4972268;28;20426;-69
2023/08/01 07:41:35;;;;;;;2.60;2.40;;;;;;;;;;4972713;28;20481;-70
2023/08/01 07:44:03;;;;;;;5.73;3.93;;;;;;;;;;4972166;28;20419;-62
2023/08/01 07:46:29;;;;;;;3.03;2.70;;;;;;;;;;4972542;28;20437;-63
2023/08/01 07:48:55;;;;;;;4.30;3.40;;;;;;;;;;4972075;28;20461;-70
2023/08/01 07:51:21;;;;;;;3.97;2.80;;;;;;;;;;4971686;28;20454;-69
2023/08/01 07:53:47;;;;;;;2.50;2.40;;;;;;;;;;4971915;28;20271;-69
2023/08/01 07:56:13;;;;;;;2.20;2.10;;;;;;;;;;4972084;28;20454;-70
2023/08/01 07:58:39;;;;;;;2.60;2.43;;;;;;;;;;4971940;28;20430;-70
2023/08/01 08:01:05;;;;;;;4.73;2.97;;;;;;;;;;4971701;28;20516;-70
2023/08/01 08:03:31;;;;;;;2.33;2.23;;;;;;;;;;4971749;28;20419;-70
2023/08/01 08:05:58;;;;;;;2.47;2.27;;;;;;;;;;4972040;28;20571;-70
2023/08/01 08:08:24;;;;;;;4.87;2.80;;;;;;;;;;4971688;28;20426;-71
2023/08/01 08:10:50;;;;;;;2.40;2.30;;;;;;;;;;4971624;28;20427;-70
2023/08/01 08:13:16;;;;;;;4.53;2.10;;;;;;;;;;4971866;28;20418;-70
2023/08/01 08:15:42;;;;;;;2.70;2.50;;;;;;;;;;4970901;28;20516;-70
2023/08/01 08:18:08;;;;;;;8.27;2.60;;;;;;;;;;4971698;28;20417;-70
2023/08/01 08:20:41;;;;;;;3.23;2.30;;;;;;;;;;4971736;28;20484;-70
2023/08/01 08:23:06;;;;;;;2.13;1.87;;;;;;;;;;4971566;28;20893;-70
2023/08/01 08:25:33;;;;;;;3.90;2.50;;;;;;;;;;4971796;28;20517;-70
2023/08/01 08:27:59;;;;;;;2.93;2.73;;;;;;;;;;4971798;28;20421;-72
2023/08/01 08:30:25;;;;;;;2.40;2.30;;;;;;;;;;4971575;28;20814;-70
2023/08/01 08:32:51;;;;;;;5.37;2.03;;;;;;;;;;4971535;28;20426;-70
2023/08/01 08:35:17;;;;;;;2.20;1.70;;;;;;;;;;4971643;28;20517;-71
2023/08/01 08:37:43;;;;;;;2.43;1.90;;;;;;;;;;4971414;28;20422;-70
2023/08/01 08:40:09;;;;;;;2.20;2.10;;;;;;;;;;4971392;28;21028;-70
2023/08/01 08:42:35;;;;;;;3.33;2.27;;;;;;;;;;4971244;28;20930;-70
2023/08/01 08:45:02;;;;;;;2.47;2.37;;;;;;;;;;4971673;28;20428;-71
2023/08/01 08:47:28;;;;;;;2.47;1.77;;;;;;;;;;4971232;28;20434;-70
2023/08/01 08:49:58;;;;;;;2.33;1.90;;;;;;;;;;4969962;28;20437;-70
2023/08/01 08:52:25;;;;;;;2.00;2.00;;;;;;;;;;4971609;28;20422;-70
2023/08/01 08:54:51;;;;;;;2.20;2.00;;;;;;;;;;4971040;28;20473;-71
2023/08/01 08:57:19;;;;;;;2.50;2.40;;;;;;;;;;4971469;28;20458;-70
2023/08/01 08:59:45;;;;;;;3.50;3.10;;;;;;;;;;4971261;28;20429;-70
2023/08/01 09:02:11;;;;;;;1.90;1.90;;;;;;;;;;4971082;28;20513;-70
2023/08/01 09:04:37;;;;;;;2.30;2.20;;;;;;;;;;4970978;28;20425;-72
2023/08/01 09:07:06;;;;;;;2.50;2.40;;;;;;;;;;4972086;28;20501;-72
2023/08/01 09:09:33;;;;;;;2.33;2.27;;;;;;;;;;4974487;28;20414;-70
2023/08/01 09:11:59;;;;;;;2.67;2.47;;;;;;;;;;4974726;28;20422;-70
2023/08/01 09:14:25;;;;;;;2.20;2.20;;;;;;;;;;4974365;28;20475;-71
2023/08/01 09:16:51;;;;;;;2.67;2.47;;;;;;;;;;4974648;28;20455;-71
2023/08/01 09:19:21;;;;;;;1.90;1.90;;;;;;;;;;4974292;28;20418;-71
2023/08/01 09:21:48;;;;;;;2.00;1.90;;;;;;;;;;4974553;28;20516;-71
2023/08/01 09:24:18;;;;;;;4.23;1.53;;;;;;;;;;4974451;28;20509;-70
2023/08/01 09:26:44;;;;;;;1.60;1.50;;;;;;;;;;4974120;28;20523;-70
2023/08/01 09:29:10;;;;;;;1.63;1.40;;;;;;;;;;4974379;28;20436;-71
2023/08/01 09:31:38;;;;;;;4.73;1.90;;;;;;;;;;4974338;28;20425;-71
2023/08/01 09:34:05;;;;;;;1.60;1.60;;;;;;;;;;4974315;28;20418;-71
2023/08/01 09:36:31;;;;;;;1.40;1.40;;;;;;;;;;4973724;28;20941;-71
2023/08/01 09:39:03;;;;;;;2.60;1.80;;;;;;;;;;4974198;28;20910;-66
2023/08/01 09:41:29;;;;;;;2.87;2.50;;;;;;;;;;4973917;28;20509;-70
2023/08/01 09:43:55;;;;;;;2.30;2.10;;;;;;;;;;4974215;28;20426;-70
2023/08/01 09:46:21;;;;;;;1.60;1.50;;;;;;;;;;4973957;28;20429;-71
2023/08/01 09:48:47;;;;;;;1.63;1.63;;;;;;;;;;4973156;28;20430;-71
2023/08/01 09:51:15;;;;;;;2.10;2.10;;;;;;;;;;4973965;28;20426;-71
2023/08/01 09:53:48;;;;;;;1.53;1.50;;;;;;;;;;4973307;28;20457;-71
2023/08/01 09:56:16;;;;;;;1.97;1.87;;;;;;;;;;4974462;28;20446;-70
2023/08/01 09:58:42;;;;;;;1.67;1.57;;;;;;;;;;4973925;28;20497;-70
2023/08/01 10:01:08;;;;;;;1.80;1.80;;;;;;;;;;4973472;28;20961;-71
2023/08/01 10:03:34;;;;;;;1.70;1.60;;;;;;;;;;4973910;28;20425;-71
2023/08/01 10:06:01;;;;;;;2.10;1.60;;;;;;;;;;4972329;28;20438;-71
2023/08/01 10:08:28;;;;;;;1.67;1.57;;;;;;;;;;4973868;28;20418;-71
2023/08/01 10:10:56;;;;;;;2.67;2.47;;;;;;;;;;4973562;28;20426;-72
2023/08/01 10:13:24;;;;;;;1.80;1.80;;;;;;;;;;4973805;28;20410;-70
2023/08/01 10:15:50;;;;;;;2.90;2.80;;;;;;;;;;4973369;28;20429;-71
2023/08/01 10:18:17;;;;;;;8.63;7.30;;;;;;;;;;4972412;28;20489;-70
2023/08/01 10:20:43;;;;;;;2.33;2.23;;;;;;;;;;4973817;28;20497;-71
2023/08/01 10:23:10;;;;;;;2.27;2.13;;;;;;;;;;4973671;28;20433;-72
2023/08/01 10:25:36;;;;;;;2.20;2.10;;;;;;;;;;4971364;28;20505;-70
2023/08/01 10:28:03;;;;;;;1.87;1.87;;;;;;;;;;4973603;28;20444;-71
2023/08/01 10:30:29;;;;;;;1.47;1.47;;;;;;;;;;4973436;28;20484;-71
2023/08/01 10:32:58;;;;;;;2.70;2.60;;;;;;;;;;4973782;28;20845;-71
2023/08/01 10:35:34;;;;;;;1.80;1.80;;;;;;;;;;4973080;28;20427;-71
2023/08/01 10:38:11;;;;;;;5.13;2.57;;;;;;;;;;4973341;28;20426;-71
2023/08/01 10:40:38;;;;;;;1.50;1.50;;;;;;;;;;4971491;28;20492;-71
2023/08/01 10:43:04;;;;;;;2.33;2.33;;;;;;;;;;4972967;28;20789;-70
2023/08/01 10:45:30;;;;;;;1.60;1.30;;;;;;;;;;4973467;28;20421;-70
2023/08/01 10:48:07;;;;;;;1.57;1.57;;;;;;;;;;4973126;28;20422;-71
2023/08/01 10:50:33;;;;;;;4.23;1.90;;;;;;;;;;4973068;28;20489;-70
2023/08/01 10:53:07;;;;;;;1.37;1.37;;;;;;;;;;4972908;28;20925;-70
2023/08/01 10:55:43;;;;;;;5.20;1.70;;;;;;;;;;4972934;28;20434;-71
2023/08/01 10:58:09;;;;;;;2.40;1.50;;;;;;;;;;4972936;28;20414;-71
2023/08/01 11:00:35;;;;;;;4.13;2.33;;;;;;;;;;4973609;28;20866;-71
2023/08/01 11:03:01;;;;;;;1.40;1.30;;;;;;;;;;4973043;28;20969;-71
2023/08/01 11:05:29;;;;;;;1.60;1.50;;;;;;;;;;4973078;28;20429;-70
2023/08/01 11:07:59;;;;;;;3.70;1.27;;;;;;;;;;4972711;28;20932;-71
2023/08/01 11:10:29;;;;;;;3.00;1.40;;;;;;;;;;4972704;28;20418;-71
2023/08/01 11:12:55;;;;;;;1.40;1.40;;;;;;;;;;4972953;28;20441;-70
2023/08/01 11:15:21;;;;;;;1.30;1.30;;;;;;;;;;4972892;28;20414;-73
2023/08/01 11:17:48;;;;;;;1.20;1.20;;;;;;;;;;4971220;28;20410;-71
2023/08/01 11:20:14;;;;;;;1.60;1.50;;;;;;;;;;4972480;28;20519;-71
2023/08/01 11:23:04;;;;;;;5.10;1.53;;;;;;;;;;4972809;28;20926;-73
2023/08/01 11:25:34;;;;;;;2.00;1.30;;;;;;;;;;4972793;28;20399;-70
2023/08/01 11:28:14;;;;;;;0.63;0.63;;;;;;;;;;4972728;28;20430;-71
2023/08/01 11:30:41;;;;;;;1.87;1.20;;;;;;;;;;4971934;28;20437;-71
2023/08/01 11:33:36;;;;;;;1.10;0.90;;;;;;;;;;4972387;28;20425;-70
2023/08/01 11:36:03;;;;;;;0.70;0.70;;;;;;;;;;4980620;28;20426;-71
2023/08/01 11:38:30;;;;;;;0.80;0.80;;;;;;;;;;4972199;28;20939;-71
2023/08/01 11:40:59;;;;;;;0.50;0.50;;;;;;;;;;4972486;28;20906;-71
2023/08/01 11:43:25;;;;;;;5.70;0.87;;;;;;;;;;4972588;28;20418;-71
2023/08/01 11:45:55;;;;;;;2.70;0.60;;;;;;;;;;4972708;28;20430;-71
2023/08/01 11:48:24;;;;;;;2.13;0.60;;;;;;;;;;4972353;28;20825;-71
2023/08/01 11:50:56;;;;;;;0.70;0.70;;;;;;;;;;4971999;28;20426;-70
2023/08/01 11:53:23;;;;;;;0.80;0.80;;;;;;;;;;4972113;28;20470;-70
2023/08/01 11:55:52;;;;;;;0.63;0.63;;;;;;;;;;4972276;28;20491;-71
2023/08/01 11:58:28;;;;;;;0.50;0.50;;;;;;;;;;4972289;28;20750;-71
2023/08/01 12:01:02;;;;;;;1.10;1.10;;;;;;;;;;4970604;28;21075;-70
2023/08/01 12:03:28;;;;;;;2.43;1.37;;;;;;;;;;4970665;28;20794;-71
2023/08/01 12:06:02;;;;;;;0.73;0.73;;;;;;;;;;4972419;28;20441;-72
2023/08/01 12:08:35;;;;;;;1.60;0.90;;;;;;;;;;4970732;28;20414;-71
2023/08/01 12:11:01;;;;;;;0.80;0.77;;;;;;;;;;4971979;28;20417;-71
2023/08/01 12:13:27;;;;;;;1.00;1.00;;;;;;;;;;4971896;28;20520;-70
2023/08/01 12:15:55;;;;;;;6.53;1.00;;;;;;;;;;4971902;28;20433;-70
2023/08/01 12:18:22;;;;;;;0.60;0.60;;;;;;;;;;4971736;28;20849;-70
2023/08/01 12:20:48;;;;;;;0.70;0.70;;;;;;;;;;4971822;28;20488;-70
2023/08/01 12:23:14;;;;;;;0.60;0.60;;;;;;;;;;4971977;28;20509;-71
2023/08/01 12:25:40;;;;;;;0.70;0.70;;;;;;;;;;4971552;28;20513;-71
2023/08/01 12:28:06;;;;;;;2.70;1.40;;;;;;;;;;4971936;28;20505;-71
2023/08/01 12:33:42;;;;;;;1.63;1.27;;;;;;;;;;4971594;28;20413;-70
2023/08/01 12:36:08;;;;;;;1.03;1.03;;;;;;;;;;4971686;28;20864;-70
2023/08/01 12:38:34;;;;;;;2.37;0.70;;;;;;;;;;4971593;28;20425;-70
2023/08/01 12:41:01;;;;;;;2.83;0.90;;;;;;;;;;4971149;28;20589;-70
2023/08/01 12:43:27;;;;;;;1.33;1.23;;;;;;;;;;4974415;28;20779;-70
2023/08/01 12:45:53;;;;;;;0.80;0.73;;;;;;;;;;4975298;28;20437;-70
2023/08/01 12:48:19;;;;;;;1.30;1.00;;;;;;;;;;4975048;28;20422;-70
2023/08/01 12:50:46;;;;;;;0.60;0.60;;;;;;;;;;4974736;28;20419;-70
2023/08/01 12:53:12;;;;;;;1.07;0.90;;;;;;;;;;4974777;28;20417;-70
2023/08/01 12:55:38;;;;;;;0.73;0.73;;;;;;;;;;4975062;28;20467;-71
2023/08/01 12:58:04;;;;;;;0.90;0.90;;;;;;;;;;4974863;28;20453;-71
2023/08/01 13:00:30;;;;;;;0.80;0.80;;;;;;;;;;4974829;28;20586;-71
2023/08/01 13:02:56;;;;;;;1.10;0.67;;;;;;;;;;4974844;28;20414;-70
2023/08/01 13:05:22;;;;;;;1.37;0.70;;;;;;;;;;4974838;28;20434;-70
2023/08/01 13:07:49;;;;;;;13.90;1.00;;;;;;;;;;4974597;28;20762;-70
2023/08/01 13:10:15;;;;;;;0.87;0.87;;;;;;;;;;4975224;28;20458;-71
2023/08/01 13:12:41;;;;;;;3.10;0.93;;;;;;;;;;4974401;28;20949;-70
2023/08/01 13:15:08;;;;;;;0.80;0.80;;;;;;;;;;4974703;28;20422;-71
2023/08/01 13:17:34;;;;;;;1.40;0.70;;;;;;;;;;4974660;28;20426;-71
2023/08/01 13:20:00;;;;;;;0.70;0.70;;;;;;;;;;4974501;28;20478;-70
2023/08/01 13:22:26;;;;;;;1.20;1.10;;;;;;;;;;4974291;28;20532;-70
2023/08/01 13:24:52;;;;;;;1.33;1.33;;;;;;;;;;4974140;28;20422;-71
2023/08/01 13:27:18;;;;;;;4.20;3.80;;;;;;;;;;4974273;28;20426;-71
2023/08/01 13:29:44;;;;;;;0.90;0.90;;;;;;;;;;4974077;28;20422;-70
2023/08/01 13:32:10;;;;;;;0.70;0.70;;;;;;;;;;4975040;28;20214;-70
2023/08/01 13:34:36;;;;;;;0.90;0.90;;;;;;;;;;4974118;28;20969;-70
2023/08/01 13:37:02;;;;;;;1.47;0.70;;;;;;;;;;4974688;28;20418;-72
2023/08/01 13:39:28;;;;;;;0.57;0.57;;;;;;;;;;4974105;28;20422;-70
2023/08/01 13:41:54;;;;;;;2.10;0.60;;;;;;;;;;4974294;28;20509;-70
2023/08/01 13:44:20;;;;;;;5.10;0.70;;;;;;;;;;4974090;28;20426;-71
2023/08/01 13:46:46;;;;;;;0.60;0.60;;;;;;;;;;4973963;28;20461;-71
2023/08/01 13:49:13;;;;;;;1.37;0.80;;;;;;;;;;4974130;28;20761;-71
2023/08/01 13:51:39;;;;;;;0.80;0.80;;;;;;;;;;4974228;28;20476;-70
2023/08/01 13:54:05;;;;;;;1.70;1.23;;;;;;;;;;4973805;28;20466;-70
2023/08/01 13:56:31;;;;;;;2.87;1.00;;;;;;;;;;4973831;28;20428;-71
2023/08/01 13:58:57;;;;;;;0.60;0.60;;;;;;;;;;4973850;28;20410;-71
2023/08/01 14:01:23;;;;;;;0.70;0.70;;;;;;;;;;4973650;28;20501;-69
2023/08/01 14:03:49;;;;;;;0.47;0.47;;;;;;;;;;4973950;28;20509;-70
2023/08/01 14:06:15;;;;;;;0.40;0.40;;;;;;;;;;4974246;28;20914;-70
2023/08/01 14:08:41;;;;;;;0.50;0.50;;;;;;;;;;4973647;28;20454;-70
2023/08/01 14:11:08;;;;;;;0.73;0.73;;;;;;;;;;4973890;28;20419;-70
2023/08/01 14:13:35;;;;;;;0.60;0.60;;;;;;;;;;4973574;28;20426;-70
2023/08/01 14:16:01;;;;;;;0.57;0.57;;;;;;;;;;4973638;28;20422;-70
2023/08/01 14:18:27;;;;;;;0.60;0.60;;;;;;;;;;4973553;28;20486;-70
2023/08/01 14:20:54;;;;;;;1.33;0.70;;;;;;;;;;4972209;28;21024;-71
2023/08/01 14:23:20;;;;;;;0.90;0.90;;;;;;;;;;4973666;28;20423;-70
2023/08/01 14:25:46;;;;;;;0.70;0.70;;;;;;;;;;4973368;28;20422;-70
2023/08/01 14:28:12;;;;;;;0.47;0.47;;;;;;;;;;4973310;28;20913;-70
2023/08/01 14:30:38;;;;;;;0.60;0.60;;;;;;;;;;4973219;28;20406;-69
2023/08/01 14:33:05;;;;;;;0.60;0.60;;;;;;;;;;4973598;28;20429;-70
2023/08/01 14:35:32;;;;;;;0.60;0.60;;;;;;;;;;4973251;28;20905;-70
2023/08/01 14:37:58;;;;;;;0.50;0.50;;;;;;;;;;4973247;28;20857;-70
2023/08/01 14:40:24;;;;;;;0.40;0.40;;;;;;;;;;4973405;28;20553;-70
2023/08/01 14:42:50;;;;;;;0.80;0.80;;;;;;;;;;4973214;28;20921;-70
2023/08/01 14:45:16;;;;;;;1.13;0.80;;;;;;;;;;4973354;28;20426;-70